Time;durP1;ratioP1;P1;durP2;ratioP2;P2;SDS_P1;SDS_P2;PMS_P1;PMS_P2;Temp;Humidity;BMP_temperature;BMP_pressure;BME280_temperature;BME280_humidity;BME280_pressure;Samples;Min_cycle;Max_cycle;Signal;HPM_P1;HPM_P2
2023/01/27 00:00:17;;;;;;;42.13;17.88;;;;;;;-1.60;100.00;96307.19;5044249;28;20048;-83
2023/01/27 00:02:44;;;;;;;44.88;16.52;;;;;;;-1.53;100.00;96301.69;5041497;28;20390;-81
2023/01/27 00:05:13;;;;;;;41.65;17.30;;;;;;;-1.41;100.00;96305.09;5043465;28;20119;-84
2023/01/27 00:07:44;;;;;;;41.90;16.08;;;;;;;-1.33;100.00;96296.66;5036084;28;20041;-81
2023/01/27 00:10:14;;;;;;;39.65;16.17;;;;;;;-1.39;100.00;96294.16;5035739;28;20055;-81
2023/01/27 00:15:26;;;;;;;40.83;15.48;;;;;;;-1.55;100.00;96308.31;5033964;28;20056;-82
2023/01/27 00:17:53;;;;;;;38.30;15.32;;;;;;;-1.50;100.00;96301.22;5036039;28;20033;-83
2023/01/27 00:24:34;;;;;;;38.33;15.10;;;;;;;-1.33;100.00;96304.69;5032697;28;20046;-84
2023/01/27 00:26:05;;;;;;;36.53;15.27;;;;;;;-1.41;100.00;96307.78;5033644;28;20119;-84
2023/01/27 00:28:31;;;;;;;36.85;15.95;;;;;;;-1.52;100.00;96297.94;5032403;28;20061;-83
2023/01/27 00:30:58;;;;;;;40.88;16.20;;;;;;;-1.61;100.00;96299.44;5034668;28;20437;-82
2023/01/27 00:33:24;;;;;;;39.10;15.43;;;;;;;-1.57;100.00;96300.53;5033829;28;20041;-80
2023/01/27 00:35:57;;;;;;;37.72;14.13;;;;;;;-1.64;100.00;96294.56;5037287;28;20046;-81
2023/01/27 00:38:24;;;;;;;40.63;16.30;;;;;;;-1.81;100.00;96293.75;5033843;28;20057;-84
2023/01/27 00:43:32;;;;;;;38.60;14.77;;;;;;;-1.49;100.00;96281.44;5033603;28;20109;-86
2023/01/27 00:45:59;;;;;;;38.63;15.00;;;;;;;-1.52;100.00;96292.59;5034325;28;20042;-81
2023/01/27 00:48:25;;;;;;;41.83;14.57;;;;;;;-1.48;100.00;96293.75;5033994;28;20053;-80
2023/01/27 00:50:52;;;;;;;36.15;14.68;;;;;;;-1.37;100.00;96292.84;5035403;28;20045;-84
2023/01/27 00:53:18;;;;;;;36.13;14.25;;;;;;;-1.36;100.00;96296.34;5033646;28;20056;-80
2023/01/27 00:55:46;;;;;;;40.08;15.50;;;;;;;-1.62;100.00;96298.63;5035138;28;20053;-80
2023/01/27 00:58:12;;;;;;;34.15;13.70;;;;;;;-1.59;100.00;96292.78;5033888;28;20052;-79
2023/01/27 01:00:40;;;;;;;30.08;11.85;;;;;;;-1.52;100.00;96308.63;5033898;28;20037;-81
2023/01/27 01:03:06;;;;;;;27.05;11.55;;;;;;;-1.47;100.00;96311.38;5041897;28;20043;-81
2023/01/27 01:05:33;;;;;;;24.63;11.02;;;;;;;-1.58;100.00;96293.59;5035791;28;20041;-82
2023/01/27 01:07:59;;;;;;;22.88;10.07;;;;;;;-1.60;100.00;96301.84;5033119;28;20037;-83
2023/01/27 01:10:26;;;;;;;19.92;9.60;;;;;;;-1.51;100.00;96310.28;5035769;28;20041;-83
2023/01/27 01:12:52;;;;;;;26.25;10.75;;;;;;;-1.53;100.00;96309.69;5035504;28;20049;-80
2023/01/27 01:15:19;;;;;;;23.75;10.80;;;;;;;-1.45;100.00;96313.84;5035186;28;20064;-80
2023/01/27 01:17:46;;;;;;;23.83;10.38;;;;;;;-1.45;100.00;96309.31;5035472;28;20037;-81
2023/01/27 01:20:13;;;;;;;23.80;9.90;;;;;;;-1.55;100.00;96309.13;5035871;28;20052;-82
2023/01/27 01:22:39;;;;;;;20.88;10.13;;;;;;;-1.51;100.00;96312.09;5037541;28;20052;-79
2023/01/27 01:25:08;;;;;;;19.95;9.45;;;;;;;-1.61;100.00;96307.44;5039392;28;20068;-80
2023/01/27 01:27:34;;;;;;;18.85;9.07;;;;;;;-1.59;100.00;96308.00;5033658;28;20041;-79
2023/01/27 01:30:01;;;;;;;21.35;9.50;;;;;;;-1.52;100.00;96303.28;5047641;28;20045;-86
2023/01/27 01:32:27;;;;;;;18.73;8.85;;;;;;;-1.55;100.00;96303.78;5047894;28;20040;-84
2023/01/27 01:34:55;;;;;;;18.73;8.13;;;;;;;-1.61;100.00;96316.25;5055750;28;20049;-86
2023/01/27 01:37:21;;;;;;;20.60;9.18;;;;;;;-1.56;100.00;96318.19;5048067;28;20049;-86
2023/01/27 01:39:48;;;;;;;20.58;9.70;;;;;;;-1.48;100.00;96316.97;5048104;28;20056;-85
2023/01/27 01:42:14;;;;;;;19.95;8.02;;;;;;;-1.45;100.00;96325.31;5037085;28;20041;-80
2023/01/27 01:44:44;;;;;;;16.80;8.75;;;;;;;-1.49;100.00;96313.50;5049868;28;20055;-86
2023/01/27 01:47:15;;;;;;;19.52;8.43;;;;;;;-1.41;100.00;96305.09;5047679;28;20053;-85
2023/01/27 01:49:41;;;;;;;20.27;8.75;;;;;;;-1.40;100.00;96308.56;5043332;28;20049;-81
2023/01/27 01:52:13;;;;;;;22.10;9.32;;;;;;;-1.38;100.00;96309.94;5045156;28;20044;-81
2023/01/27 01:54:44;;;;;;;21.73;9.63;;;;;;;-1.30;100.00;96299.91;5041391;28;20049;-81
2023/01/27 01:57:16;;;;;;;19.50;9.07;;;;;;;-1.36;100.00;96312.34;5041906;28;20049;-80
2023/01/27 01:59:46;;;;;;;19.60;8.90;;;;;;;-1.30;100.00;96302.59;5038013;28;20042;-81
2023/01/27 02:02:17;;;;;;;23.98;9.40;;;;;;;-1.25;100.00;96302.63;5037359;28;20073;-81
2023/01/27 02:04:48;;;;;;;20.17;8.98;;;;;;;-1.24;100.00;96290.91;5038518;28;20045;-85
2023/01/27 02:07:20;;;;;;;19.73;9.30;;;;;;;-1.19;100.00;96291.00;5037611;28;20414;-80
2023/01/27 02:09:47;;;;;;;22.03;9.13;;;;;;;-1.20;100.00;96295.53;5039383;28;20512;-82
2023/01/27 02:12:13;;;;;;;22.33;9.65;;;;;;;-1.21;99.94;96293.09;5036992;28;20033;-83
2023/01/27 02:14:41;;;;;;;21.45;9.98;;;;;;;-1.24;99.63;96283.72;5045636;28;20442;-83
2023/01/27 02:17:09;;;;;;;22.88;9.32;;;;;;;-1.17;99.72;96289.69;5045397;28;20072;-81
2023/01/27 02:19:47;;;;;;;25.10;9.85;;;;;;;-1.25;99.30;96291.94;5037447;28;20041;-80
2023/01/27 02:22:20;;;;;;;21.88;9.82;;;;;;;-1.25;99.21;96292.78;5038468;28;20053;-81
2023/01/27 02:24:55;;;;;;;21.83;9.80;;;;;;;-1.18;99.08;96293.41;5038477;28;20052;-81
2023/01/27 02:27:23;;;;;;;21.73;9.65;;;;;;;-1.19;98.77;96285.66;5035709;28;20099;-82
2023/01/27 02:29:49;;;;;;;30.02;10.70;;;;;;;-1.44;98.50;96278.88;5037547;28;20037;-82
2023/01/27 02:32:24;;;;;;;22.77;10.85;;;;;;;-1.37;99.00;96289.38;5036795;28;20068;-83
2023/01/27 02:34:50;;;;;;;25.25;10.02;;;;;;;-1.26;98.95;96290.34;5046412;28;20537;-81
2023/01/27 02:37:18;;;;;;;23.85;10.45;;;;;;;-1.24;98.62;96299.75;5046486;28;20053;-81
2023/01/27 02:39:46;;;;;;;22.50;10.30;;;;;;;-1.29;98.39;96290.84;5038798;28;20048;-82
2023/01/27 02:42:15;;;;;;;28.45;11.50;;;;;;;-1.22;98.48;96286.13;5040204;28;20068;-81
2023/01/27 02:44:43;;;;;;;20.80;9.02;;;;;;;-1.20;98.41;96284.84;5051241;28;20045;-81
2023/01/27 02:47:09;;;;;;;23.70;10.48;;;;;;;-1.26;98.41;96290.34;5037074;28;20037;-84
2023/01/27 02:49:36;;;;;;;25.58;10.95;;;;;;;-1.40;98.60;96285.34;5037697;28;20037;-84
2023/01/27 02:52:03;;;;;;;28.30;11.07;;;;;;;-1.30;98.96;96283.88;5037036;28;20037;-81
2023/01/27 02:54:30;;;;;;;27.30;10.80;;;;;;;-1.43;98.95;96285.81;5037659;28;20115;-82
2023/01/27 02:56:56;;;;;;;29.80;11.82;;;;;;;-1.71;100.00;96289.38;5037963;28;20052;-81
2023/01/27 02:59:23;;;;;;;27.35;11.43;;;;;;;-1.56;100.00;96290.69;5044336;28;20044;-80
2023/01/27 03:01:51;;;;;;;29.75;11.45;;;;;;;-1.59;100.00;96286.63;5037527;28;20052;-81
2023/01/27 03:04:17;;;;;;;29.02;11.35;;;;;;;-1.60;100.00;96285.03;5037195;28;20045;-85
2023/01/27 03:06:44;;;;;;;27.25;10.75;;;;;;;-1.50;100.00;96290.53;5037333;28;20708;-85
2023/01/27 03:09:10;;;;;;;25.13;10.43;;;;;;;-1.50;99.84;96287.06;5036520;28;20037;-79
2023/01/27 03:14:21;;;;;;;26.92;11.20;;;;;;;-1.53;100.00;96285.66;5043554;28;20052;-83
2023/01/27 03:19:33;;;;;;;31.27;11.70;;;;;;;-1.39;99.90;96284.28;5036237;28;20371;-83
2023/01/27 03:22:00;;;;;;;32.65;12.27;;;;;;;-1.40;99.96;96274.66;5036575;28;20390;-81
2023/01/27 03:24:27;;;;;;;30.75;12.93;;;;;;;-1.48;100.00;96271.59;5042805;28;20041;-82
2023/01/27 03:26:53;;;;;;;37.10;13.70;;;;;;;-1.41;100.00;96273.03;5036738;28;20489;-82
2023/01/27 03:32:15;;;;;;;32.30;12.55;;;;;;;-1.44;100.00;96268.19;4975014;28;20137;-83
2023/01/27 03:34:43;;;;;;;30.30;11.40;;;;;;;-1.44;100.00;96272.72;5022090;28;20049;-84
2023/01/27 03:48:06;;;;;;;34.60;13.20;;;;;;;-1.54;100.00;96278.69;5037805;28;20048;-83
2023/01/27 03:50:37;;;;;;;36.65;13.07;;;;;;;-1.49;100.00;96286.00;5042452;28;20041;-78
2023/01/27 03:53:03;;;;;;;35.25;13.48;;;;;;;-1.49;100.00;96275.31;5036374;28;20041;-82
2023/01/27 03:55:30;;;;;;;35.63;14.32;;;;;;;-1.50;100.00;96277.16;5036353;28;20052;-83
2023/01/27 03:58:04;;;;;;;34.47;14.23;;;;;;;-1.47;100.00;96275.88;5035679;28;20044;-85
2023/01/27 04:00:31;;;;;;;36.70;13.52;;;;;;;-1.42;100.00;96282.09;5041038;28;20033;-83
2023/01/27 04:08:28;;;;;;;34.90;13.80;;;;;;;-1.36;100.00;96270.47;5035625;28;20039;-81
2023/01/27 04:13:34;;;;;;;33.42;13.05;;;;;;;-1.28;100.00;96276.44;5035016;28;20033;-82
2023/01/27 04:16:01;;;;;;;38.65;14.90;;;;;;;-1.21;100.00;96277.88;5036032;28;20041;-80
2023/01/27 04:18:27;;;;;;;37.40;14.02;;;;;;;-1.27;99.88;96278.03;5051828;28;20037;-81
2023/01/27 04:20:55;;;;;;;32.22;12.45;;;;;;;-1.21;99.94;96283.19;5035980;28;20108;-81
2023/01/27 04:23:21;;;;;;;33.92;12.30;;;;;;;-1.17;99.78;96284.34;5038692;28;20559;-80
2023/01/27 04:25:49;;;;;;;44.92;14.55;;;;;;;-1.23;99.62;96277.31;5047568;28;20040;-80
2023/01/27 04:28:15;;;;;;;40.10;14.07;;;;;;;-1.29;100.00;96274.81;5038446;28;20561;-80
2023/01/27 04:30:42;;;;;;;36.80;13.07;;;;;;;-1.21;100.00;96275.19;5055547;28;20044;-81
2023/01/27 04:33:09;;;;;;;38.95;14.30;;;;;;;-1.19;99.78;96269.63;5045323;28;20033;-82
2023/01/27 04:35:35;;;;;;;36.78;13.25;;;;;;;-1.18;99.85;96281.91;5041496;28;20041;-82
2023/01/27 04:38:03;;;;;;;38.05;13.63;;;;;;;-1.15;99.60;96282.25;5051859;28;20041;-82
2023/01/27 04:40:30;;;;;;;35.50;12.40;;;;;;;-1.14;99.70;96286.53;5048623;28;20033;-79
2023/01/27 04:42:57;;;;;;;37.78;13.23;;;;;;;-1.19;99.50;96286.47;5041908;28;20048;-81
2023/01/27 04:45:23;;;;;;;39.15;12.95;;;;;;;-1.24;99.85;96277.56;5051313;28;20056;-79
2023/01/27 04:47:49;;;;;;;36.78;12.32;;;;;;;-1.23;100.00;96277.31;5044093;28;20052;-83
2023/01/27 04:50:16;;;;;;;30.90;12.52;;;;;;;-1.29;99.66;96277.50;5045987;28;20057;-80
2023/01/27 04:52:44;;;;;;;37.20;13.13;;;;;;;-1.34;99.85;96281.69;5041117;28;20045;-82
2023/01/27 04:55:11;;;;;;;36.40;12.43;;;;;;;-1.39;99.95;96280.81;5035524;28;20045;-81
2023/01/27 04:57:38;;;;;;;38.03;12.60;;;;;;;-1.37;100.00;96279.50;5037127;28;20049;-82
2023/01/27 05:00:06;;;;;;;36.40;12.40;;;;;;;-1.29;100.00;96277.50;5034879;28;20045;-81
2023/01/27 05:02:32;;;;;;;31.30;11.82;;;;;;;-1.33;100.00;96275.28;5049518;28;20098;-80
2023/01/27 05:05:03;;;;;;;35.35;13.75;;;;;;;-1.33;100.00;96279.81;5050123;28;20071;-77
2023/01/27 05:07:29;;;;;;;39.22;13.43;;;;;;;-1.33;100.00;96279.81;5041637;28;20045;-84
2023/01/27 05:09:56;;;;;;;36.42;13.02;;;;;;;-1.33;100.00;96280.63;5049034;28;20041;-81
2023/01/27 05:12:24;;;;;;;34.50;12.80;;;;;;;-1.40;100.00;96298.69;5049618;28;20049;-79
2023/01/27 05:14:50;;;;;;;33.17;12.45;;;;;;;-1.33;100.00;96291.31;5041262;28;20120;-81
2023/01/27 05:17:17;;;;;;;35.08;13.00;;;;;;;-1.34;99.96;96295.03;5041626;28;20041;-79
2023/01/27 05:19:43;;;;;;;39.78;12.68;;;;;;;-1.35;100.00;96290.75;5047427;28;20041;-81
2023/01/27 05:22:10;;;;;;;35.58;12.57;;;;;;;-1.41;100.00;96296.25;5048977;28;20124;-79
2023/01/27 05:24:38;;;;;;;30.30;12.30;;;;;;;-1.36;100.00;96291.81;5042959;28;20048;-81
2023/01/27 05:27:05;;;;;;;29.17;11.77;;;;;;;-1.40;100.00;96293.34;5040468;28;20041;-79
2023/01/27 05:29:33;;;;;;;30.50;12.70;;;;;;;-1.37;100.00;96306.22;5042316;28;20043;-80
2023/01/27 05:31:59;;;;;;;35.55;11.73;;;;;;;-1.29;100.00;96302.34;5049339;28;20409;-82
2023/01/27 05:34:26;;;;;;;30.15;11.98;;;;;;;-1.24;100.00;96304.28;5042420;28;20041;-80
2023/01/27 05:36:52;;;;;;;38.55;11.82;;;;;;;-1.13;100.00;96300.69;5053353;28;20055;-81
2023/01/27 05:39:19;;;;;;;33.17;12.57;;;;;;;-1.08;100.00;96316.81;5045499;28;20049;-80
2023/01/27 05:41:45;;;;;;;32.28;11.68;;;;;;;-1.02;99.91;96318.50;5039652;28;20424;-79
2023/01/27 05:44:12;;;;;;;33.47;12.57;;;;;;;-1.00;99.82;96315.56;5047254;28;20579;-83
2023/01/27 05:46:41;;;;;;;32.25;12.48;;;;;;;-0.96;99.59;96322.03;5056229;28;20049;-82
2023/01/27 05:49:08;;;;;;;34.35;12.77;;;;;;;-0.92;99.69;96323.19;5046646;28;20505;-80
2023/01/27 05:51:38;;;;;;;29.38;11.45;;;;;;;-0.91;99.58;96324.78;5043194;28;20045;-80
2023/01/27 05:54:05;;;;;;;23.63;10.70;;;;;;;-0.92;99.34;96321.31;5051335;28;20047;-80
2023/01/27 05:56:32;;;;;;;35.45;12.98;;;;;;;-0.96;99.38;96327.41;5049866;28;20045;-78
2023/01/27 05:58:59;;;;;;;34.28;13.48;;;;;;;-0.94;99.24;96331.47;5041697;28;20042;-81
2023/01/27 06:01:27;;;;;;;29.55;11.73;;;;;;;-0.90;99.29;96326.41;5047878;28;20048;-79
2023/01/27 06:03:55;;;;;;;24.30;10.50;;;;;;;-0.83;99.05;96335.88;5057817;28;20060;-81
2023/01/27 06:06:24;;;;;;;26.45;10.45;;;;;;;-0.81;98.73;96339.13;5049345;28;20044;-79
2023/01/27 06:08:50;;;;;;;35.15;13.07;;;;;;;-0.83;98.25;96338.56;5057973;28;20413;-81
2023/01/27 06:11:19;;;;;;;36.20;14.82;;;;;;;-0.79;98.38;96339.66;5045791;28;20544;-81
2023/01/27 06:13:46;;;;;;;32.78;14.00;;;;;;;-0.92;98.21;96334.69;5045588;28;20045;-81
2023/01/27 06:16:16;;;;;;;27.70;11.20;;;;;;;-0.98;98.35;96335.66;5044560;28;20049;-82
2023/01/27 06:18:43;;;;;;;26.02;11.05;;;;;;;-0.93;98.63;96338.41;5043789;28;20067;-83
2023/01/27 06:21:13;;;;;;;29.48;12.48;;;;;;;-0.91;98.59;96348.84;5039279;28;20041;-78
2023/01/27 06:23:40;;;;;;;43.65;18.70;;;;;;;-0.91;98.67;96352.34;5040087;28;20120;-83
2023/01/27 06:26:10;;;;;;;31.67;14.60;;;;;;;-0.87;98.29;96353.47;5044927;28;20490;-83
2023/01/27 06:28:36;;;;;;;28.48;12.18;;;;;;;-0.81;98.30;96355.16;5045490;28;20048;-81
2023/01/27 06:31:07;;;;;;;27.33;10.73;;;;;;;-0.95;98.03;96351.19;5037220;28;20049;-82
2023/01/27 06:33:33;;;;;;;25.65;9.98;;;;;;;-1.01;98.29;96362.88;5050471;28;20085;-81
2023/01/27 06:36:02;;;;;;;20.88;10.00;;;;;;;-1.00;98.48;96364.47;5057613;28;20037;-82
2023/01/27 06:38:30;;;;;;;27.58;10.27;;;;;;;-0.90;98.17;96361.97;5045708;28;20064;-82
2023/01/27 06:40:56;;;;;;;26.67;10.10;;;;;;;-0.89;97.96;96354.75;5052211;28;20041;-81
2023/01/27 06:43:23;;;;;;;21.75;9.02;;;;;;;-0.86;97.88;96362.28;5038597;28;20042;-82
2023/01/27 06:45:50;;;;;;;25.17;9.38;;;;;;;-0.88;97.67;96359.06;5046760;28;20038;-80
2023/01/27 06:48:16;;;;;;;23.50;9.85;;;;;;;-0.77;97.42;96368.03;5044709;28;20049;-82
2023/01/27 06:50:43;;;;;;;23.98;10.15;;;;;;;-0.82;97.37;96363.44;5038256;28;20041;-81
2023/01/27 06:53:09;;;;;;;22.45;9.73;;;;;;;-0.76;96.80;96366.97;5055122;28;20044;-82
2023/01/27 06:55:40;;;;;;;25.35;9.82;;;;;;;-0.73;96.72;96371.81;5057624;28;20068;-82
2023/01/27 06:58:07;;;;;;;23.30;9.20;;;;;;;-0.65;96.46;96371.41;5056479;28;20067;-82
2023/01/27 07:00:34;;;;;;;24.73;9.68;;;;;;;-0.62;96.24;96366.41;5058384;28;20041;-81
2023/01/27 07:03:00;;;;;;;23.30;9.20;;;;;;;-0.59;96.16;96365.06;5061124;28;20041;-89
2023/01/27 07:05:27;;;;;;;23.23;10.00;;;;;;;-0.56;96.02;96353.91;5055620;28;20045;-87
2023/01/27 07:07:53;;;;;;;22.83;9.68;;;;;;;-0.54;95.75;96357.13;5046696;28;20046;-85
2023/01/27 07:10:20;;;;;;;24.50;10.25;;;;;;;-0.52;95.63;96360.38;5042632;28;20441;-84
2023/01/27 07:12:47;;;;;;;26.55;9.70;;;;;;;-0.51;95.45;96366.53;5048773;28;20041;-83
2023/01/27 07:15:14;;;;;;;24.15;10.05;;;;;;;-0.60;95.30;96368.81;5044317;28;20048;-85
2023/01/27 07:17:40;;;;;;;23.98;9.73;;;;;;;-0.60;95.13;96364.28;5036430;28;20041;-81
2023/01/27 07:20:09;;;;;;;27.83;10.45;;;;;;;-0.66;95.28;96361.78;5035206;28;20421;-82
2023/01/27 07:22:35;;;;;;;27.60;12.43;;;;;;;-0.66;95.21;96359.91;5044047;28;20041;-83
2023/01/27 07:25:02;;;;;;;28.00;10.80;;;;;;;-0.66;95.19;96362.59;5042919;28;20041;-82
2023/01/27 07:27:29;;;;;;;22.27;9.95;;;;;;;-0.63;94.94;96364.75;5044080;28;20512;-82
2023/01/27 07:29:57;;;;;;;27.60;11.23;;;;;;;-0.63;94.94;96364.75;5048182;28;20045;-79
2023/01/27 07:32:23;;;;;;;23.35;9.52;;;;;;;-0.55;95.18;96360.88;5034999;28;20148;-83
2023/01/27 07:34:49;;;;;;;24.60;11.45;;;;;;;-0.55;95.17;96360.88;5037884;28;20065;-84
2023/01/27 07:37:16;;;;;;;27.17;11.63;;;;;;;-0.57;95.34;96357.63;5036817;28;20049;-80
2023/01/27 07:39:42;;;;;;;29.65;11.70;;;;;;;-0.64;95.30;96367.69;5041249;28;20045;-81
2023/01/27 07:42:09;;;;;;;30.38;11.23;;;;;;;-0.66;95.28;96361.78;5037632;28;20042;-83
2023/01/27 07:44:36;;;;;;;31.35;12.00;;;;;;;-0.75;95.49;96365.94;5040115;28;20045;-81
2023/01/27 07:47:04;;;;;;;30.08;11.43;;;;;;;-0.67;95.61;96373.53;5045001;28;20043;-81
2023/01/27 07:49:30;;;;;;;31.65;12.48;;;;;;;-0.61;94.50;96372.56;5039325;28;20040;-79
2023/01/27 07:51:57;;;;;;;27.67;11.05;;;;;;;-0.59;94.47;96365.06;5045747;28;20654;-82
2023/01/27 07:54:24;;;;;;;32.75;12.13;;;;;;;-0.62;94.47;96370.94;5047835;28;20044;-80
2023/01/27 07:56:50;;;;;;;29.75;12.18;;;;;;;-0.58;94.54;96377.38;5040206;28;20044;-81
2023/01/27 07:59:17;;;;;;;29.10;12.85;;;;;;;-0.52;94.34;96379.09;5045268;28;20053;-81
2023/01/27 08:01:43;;;;;;;33.80;12.75;;;;;;;-0.50;94.05;96373.50;5044998;28;20071;-82
2023/01/27 08:04:11;;;;;;;31.20;12.25;;;;;;;-0.49;94.09;96375.91;5048439;28;20041;-81
2023/01/27 08:06:38;;;;;;;29.77;12.93;;;;;;;-0.48;93.81;96377.53;5040214;28;20041;-81
2023/01/27 08:09:05;;;;;;;33.17;12.95;;;;;;;-0.44;93.65;96381.34;5034447;28;20053;-81
2023/01/27 08:11:31;;;;;;;36.42;15.45;;;;;;;-0.49;93.27;96391.16;5037616;28;20052;-82
2023/01/27 08:13:58;;;;;;;33.65;14.15;;;;;;;-0.46;92.97;96391.47;5034628;28;20048;-82
2023/01/27 08:16:24;;;;;;;36.13;14.95;;;;;;;-0.53;92.25;96388.16;5034860;28;20041;-79
2023/01/27 08:18:52;;;;;;;35.83;14.38;;;;;;;-0.58;92.33;96404.13;5042649;28;20037;-79
2023/01/27 08:21:21;;;;;;;36.85;14.13;;;;;;;-0.46;91.84;96406.72;5035297;28;20632;-80
2023/01/27 08:23:47;;;;;;;34.58;14.05;;;;;;;-0.47;91.64;96399.72;5035117;28;20045;-82
2023/01/27 08:26:14;;;;;;;37.30;13.23;;;;;;;-0.59;91.55;96394.50;5040923;28;20041;-80
2023/01/27 08:28:40;;;;;;;35.67;14.48;;;;;;;-0.55;91.60;96390.28;5042755;28;20056;-81
2023/01/27 08:31:08;;;;;;;36.28;13.05;;;;;;;-0.53;91.51;96396.19;5045640;28;20032;-82
2023/01/27 08:33:36;;;;;;;38.17;14.15;;;;;;;-0.51;91.63;96394.09;5040871;28;20091;-80
2023/01/27 08:36:06;;;;;;;35.90;12.90;;;;;;;-0.44;91.55;96405.41;5043976;28;20047;-85
2023/01/27 08:38:34;;;;;;;34.67;13.45;;;;;;;-0.35;91.23;96403.94;5041558;28;20045;-78
2023/01/27 08:41:04;;;;;;;29.02;12.43;;;;;;;-0.30;91.10;96408.56;5038504;28;20621;-84
2023/01/27 08:43:31;;;;;;;34.60;13.70;;;;;;;-0.28;91.24;96409.09;5033973;28;20037;-79
2023/01/27 08:45:59;;;;;;;35.13;13.68;;;;;;;-0.23;91.10;96411.03;5045896;28;20120;-82
2023/01/27 08:48:25;;;;;;;34.35;13.82;;;;;;;-0.16;90.99;96400.94;5037826;28;20047;-82
2023/01/27 08:50:52;;;;;;;35.53;13.68;;;;;;;-0.12;90.42;96407.44;5051753;28;20616;-79
2023/01/27 08:53:19;;;;;;;31.77;12.68;;;;;;;-0.17;90.63;96405.50;5040152;28;21845;-80
2023/01/27 08:55:48;;;;;;;37.35;14.07;;;;;;;-0.12;90.64;96404.75;5050922;28;20079;-82
2023/01/27 08:58:14;;;;;;;30.05;11.77;;;;;;;-0.11;90.20;96406.38;5040937;28;20041;-80
2023/01/27 09:00:41;;;;;;;33.95;12.07;;;;;;;-0.20;89.79;96410.56;5033925;28;20045;-83
2023/01/27 09:03:07;;;;;;;31.33;13.57;;;;;;;-0.16;89.84;96406.31;5048364;28;20060;-80
2023/01/27 09:05:35;;;;;;;35.60;13.63;;;;;;;-0.16;89.64;96419.69;5040551;28;20042;-79
2023/01/27 09:08:02;;;;;;;32.47;12.68;;;;;;;-0.18;89.69;96424.47;5034143;28;20636;-79
2023/01/27 09:10:30;;;;;;;32.90;12.85;;;;;;;-0.15;89.82;96422.13;5045516;28;20089;-81
2023/01/27 09:12:58;;;;;;;35.33;12.75;;;;;;;-0.15;90.19;96424.00;5046294;28;20512;-84
2023/01/27 09:15:24;;;;;;;41.08;14.77;;;;;;;-0.16;89.75;96428.50;5033630;28;20049;-80
2023/01/27 09:17:51;;;;;;;32.20;13.80;;;;;;;-0.22;90.37;96420.69;5035902;28;20037;-81
2023/01/27 09:20:17;;;;;;;31.88;12.77;;;;;;;-0.15;90.17;96427.47;5035196;28;20045;-80
2023/01/27 09:22:44;;;;;;;34.47;13.18;;;;;;;-0.28;89.81;96420.59;5039060;28;20045;-81
2023/01/27 09:25:15;;;;;;;34.60;13.57;;;;;;;-0.20;89.16;96432.78;5041715;28;20037;-81
2023/01/27 09:27:42;;;;;;;31.35;13.13;;;;;;;-0.10;89.13;96424.06;5043852;28;20060;-81
2023/01/27 09:30:11;;;;;;;30.15;12.57;;;;;;;-0.29;89.13;96429.69;5034401;28;20517;-80
2023/01/27 09:32:38;;;;;;;31.58;13.25;;;;;;;-0.15;88.99;96434.72;5037184;28;20040;-78
2023/01/27 09:35:06;;;;;;;35.92;13.98;;;;;;;-0.16;89.27;96435.75;5043841;28;20044;-81
2023/01/27 09:37:38;;;;;;;36.42;14.38;;;;;;;-0.16;90.08;96433.06;5034554;28;20041;-81
2023/01/27 09:40:14;;;;;;;37.95;14.85;;;;;;;-0.16;90.27;96433.88;5042375;28;20053;-78
2023/01/27 09:42:59;;;;;;;37.67;14.40;;;;;;;-0.11;90.30;96441.16;5047717;28;20051;-81
2023/01/27 09:45:43;;;;;;;39.65;13.75;;;;;;;-0.17;89.70;96432.25;5036828;28;20041;-78
2023/01/27 09:48:26;;;;;;;39.13;13.82;;;;;;;-0.36;92.01;96434.44;5042983;28;20042;-79
2023/01/27 09:50:59;;;;;;;37.78;14.45;;;;;;;-0.31;92.21;96431.81;5044856;28;20048;-83
2023/01/27 09:53:52;;;;;;;35.17;14.60;;;;;;;-0.22;91.74;96439.41;5044747;28;20102;-79
2023/01/27 09:56:29;;;;;;;38.47;14.53;;;;;;;-0.24;91.45;96436.19;5049968;28;20052;-81
2023/01/27 09:59:12;;;;;;;37.53;14.27;;;;;;;-0.13;91.12;96440.63;5041379;28;20072;-81
2023/01/27 10:01:53;;;;;;;34.97;13.65;;;;;;;-0.07;90.82;96448.44;5038861;28;20052;-81
2023/01/27 10:04:31;;;;;;;31.88;12.77;;;;;;;0.06;90.35;96441.94;5045685;28;20041;-80
2023/01/27 10:07:15;;;;;;;32.38;12.70;;;;;;;0.12;89.89;96434.78;5037824;28;20051;-80
2023/01/27 10:10:08;;;;;;;31.02;13.80;;;;;;;0.16;89.47;96442.06;5040813;28;20478;-81
2023/01/27 10:12:52;;;;;;;33.83;12.88;;;;;;;0.23;88.90;96447.22;5043060;28;20393;-82
2023/01/27 10:15:38;;;;;;;31.02;13.48;;;;;;;0.27;87.98;96437.63;5049730;28;20144;-86
2023/01/27 10:18:20;;;;;;;29.23;12.40;;;;;;;0.31;87.91;96448.63;5036556;28;20669;-85
2023/01/27 10:20:59;;;;;;;35.17;13.25;;;;;;;0.20;87.95;96448.50;5042282;28;20045;-84
2023/01/27 10:23:36;;;;;;;31.23;12.80;;;;;;;0.24;87.82;96446.97;5047663;28;20041;-83
2023/01/27 10:26:14;;;;;;;35.85;13.82;;;;;;;0.30;87.89;96452.38;5036725;28;20462;-83
2023/01/27 10:28:47;;;;;;;35.30;12.50;;;;;;;0.35;88.08;96460.47;5041691;28;20046;-83
2023/01/27 10:31:18;;;;;;;36.45;13.80;;;;;;;0.17;87.75;96449.03;5038234;28;20068;-82
2023/01/27 10:33:51;;;;;;;35.75;13.50;;;;;;;0.17;87.95;96448.22;5037403;28;20425;-87
2023/01/27 10:36:26;;;;;;;30.83;12.38;;;;;;;0.18;87.81;96442.63;5045948;28;20433;-88
2023/01/27 10:39:08;;;;;;;31.52;12.25;;;;;;;0.14;88.04;96448.72;5036913;28;20044;-86
2023/01/27 10:41:46;;;;;;;34.50;12.82;;;;;;;0.09;88.26;96452.13;5040122;28;20037;-84
2023/01/27 10:44:33;;;;;;;34.00;12.90;;;;;;;0.18;88.22;96449.84;5035815;28;20045;-83
2023/01/27 10:47:10;;;;;;;36.80;13.10;;;;;;;0.12;88.09;96448.97;5037252;28;20048;-83
2023/01/27 10:49:41;;;;;;;29.27;11.65;;;;;;;0.16;88.12;96446.63;5040099;28;20048;-83
2023/01/27 10:52:13;;;;;;;32.00;12.27;;;;;;;0.07;88.22;96442.75;5039165;28;20041;-83
2023/01/27 10:54:44;;;;;;;31.95;12.77;;;;;;;0.06;88.24;96441.94;5036196;28;20048;-87
2023/01/27 10:57:18;;;;;;;33.47;12.85;;;;;;;0.03;88.73;96441.63;5034975;28;20045;-83
2023/01/27 10:59:50;;;;;;;33.53;12.93;;;;;;;0.05;89.17;96445.66;5036508;28;20497;-83
2023/01/27 11:02:24;;;;;;;31.98;13.63;;;;;;;0.12;89.31;96446.28;5038523;28;20406;-84
2023/01/27 11:04:57;;;;;;;36.78;13.18;;;;;;;0.21;89.49;96444.00;5036023;28;20713;-82
2023/01/27 11:07:24;;;;;;;34.20;13.50;;;;;;;0.13;89.39;96447.91;5034231;28;20045;-86
2023/01/27 11:09:56;;;;;;;33.22;12.25;;;;;;;0.18;89.13;96447.97;5036808;28;20048;-83
2023/01/27 11:12:30;;;;;;;29.30;11.82;;;;;;;0.24;89.33;96448.84;5035089;28;20040;-83
2023/01/27 11:14:58;;;;;;;29.95;11.95;;;;;;;0.24;88.83;96449.66;5035126;28;20041;-83
2023/01/27 11:17:30;;;;;;;28.95;11.57;;;;;;;0.29;88.26;96450.78;5033474;28;20072;-80
2023/01/27 11:20:06;;;;;;;28.25;11.15;;;;;;;0.31;88.14;96448.63;5043207;28;20041;-80
2023/01/27 11:22:37;;;;;;;33.25;12.68;;;;;;;0.23;86.83;96442.66;5042866;28;20099;-81
2023/01/27 11:25:17;;;;;;;30.27;12.18;;;;;;;0.27;87.53;96443.00;5040856;28;20422;-80
2023/01/27 11:28:00;;;;;;;30.85;11.95;;;;;;;0.18;88.46;96434.56;5035731;28;20045;-82
2023/01/27 11:30:33;;;;;;;32.05;12.80;;;;;;;0.24;88.07;96438.94;5034281;28;20040;-81
2023/01/27 11:33:06;;;;;;;31.33;12.15;;;;;;;0.26;88.15;96441.34;5051246;28;20048;-81
2023/01/27 11:35:33;;;;;;;20.73;8.25;;;;;;;0.34;87.73;96442.78;5034363;28;20037;-81
2023/01/27 11:38:00;;;;;;;33.92;12.32;;;;;;;0.41;87.40;96427.31;5034519;28;20045;-78
2023/01/27 11:40:29;;;;;;;27.92;11.73;;;;;;;0.42;87.64;96431.66;5045411;28;20041;-81
2023/01/27 11:42:58;;;;;;;30.30;12.27;;;;;;;0.23;88.49;96426.59;5045413;28;20052;-81
2023/01/27 11:45:25;;;;;;;32.15;12.93;;;;;;;0.30;88.09;96429.09;5046069;28;20064;-85
2023/01/27 11:47:56;;;;;;;28.38;11.75;;;;;;;0.36;87.23;96432.63;5036610;28;20509;-83
2023/01/27 11:50:26;;;;;;;30.60;11.40;;;;;;;0.39;87.18;96440.16;5036384;28;20042;-82
2023/01/27 11:52:59;;;;;;;29.05;11.30;;;;;;;0.43;86.78;96433.25;5041662;28;20041;-81
2023/01/27 11:55:30;;;;;;;28.77;11.15;;;;;;;0.43;86.35;96434.06;5044708;28;20045;-81
2023/01/27 11:58:06;;;;;;;29.45;11.32;;;;;;;0.51;86.03;96430.13;5038822;28;20037;-81
2023/01/27 12:00:41;;;;;;;28.73;11.48;;;;;;;0.51;85.94;96427.44;5048395;28;20646;-82